1G5 weather

Medina Municipal Airport
Medina, Ohio, United States

Public forecast

Using degrees Fahrenheit for public forecast. Weather courtesy of forecast.io.

METAR (pilot weather report)

Closest report is Akron Fulton International Airport, 14.6 nm (27.1 km) ESE. Retrieved 2019/05/25 20:41 UTC (0 seconds ago):

KAKR 252041Z AUTO 27027G62KT 220V290 1SM +TSRA FEW024 BKN060 BKN090 26/19 A2996 RMK AO2 PK WND 29062/2040 LTG DSNT SW RAB35 TSB40 PRESRR P0015 T02610194

TAF (pilot weather forecast)

Closest forecast is Cleveland Hopkins International Airport, 17.3 nm (32.0 km) NNW. Retrieved 2019/05/25 18:28 UTC (2 hours ago):

TAF KCLE 251726Z 2518/2624 23016G26KT P6SM VCTS SCT050CB TEMPO 2519/2521 3SM -TSRA BKN030CB FM260000 24011G17KT P6SM BKN100 FM261200 29006KT P6SM BKN020